Terminal Aerodrome Forecast
Issued by NWS Jackson, MS

Home | Current Version | Previous Version | Text Only | Print | Product List | Glossary On
Versions: 1 2 3 4 5 6 7 8 9 10 11 12 13 14 15
000
FTUS44 KJAN 241122
TAFMEI
TAF
KMEI 241122Z 2412/2512 00000KT 6SM BR SCT250
     FM241400 17003KT P6SM SCT030
     FM241800 15006KT P6SM VCTS SCT050CB
     FM250100 14004KT P6SM BKN100=

USA.gov is the U.S. government's official web portal to all federal, state and local government web resources and services.